sensor_id;sensor_type;location;lat;lon;timestamp;P1;durP1;ratioP1;P2;durP2;ratioP2
76863;SDS011;65834;52.364;9.754;2023-02-28T00:00:32;12.30;;;4.93;;
76863;SDS011;65834;52.364;9.754;2023-02-28T00:03:02;12.77;;;4.47;;
76863;SDS011;65834;52.364;9.754;2023-02-28T00:05:32;11.30;;;4.07;;
76863;SDS011;65834;52.364;9.754;2023-02-28T00:08:05;12.63;;;4.23;;
76863;SDS011;65834;52.364;9.754;2023-02-28T00:10:34;12.07;;;4.68;;
76863;SDS011;65834;52.364;9.754;2023-02-28T00:13:05;8.50;;;3.57;;
76863;SDS011;65834;52.364;9.754;2023-02-28T00:15:35;12.03;;;4.80;;
76863;SDS011;65834;52.364;9.754;2023-02-28T00:18:04;12.27;;;4.30;;
76863;SDS011;65834;52.364;9.754;2023-02-28T00:20:34;10.03;;;3.83;;
76863;SDS011;65834;52.364;9.754;2023-02-28T00:23:06;13.40;;;4.50;;
76863;SDS011;65834;52.364;9.754;2023-02-28T00:25:35;10.95;;;4.28;;
76863;SDS011;65834;52.364;9.754;2023-02-28T00:28:05;12.23;;;4.67;;
76863;SDS011;65834;52.364;9.754;2023-02-28T00:30:34;12.87;;;4.90;;
76863;SDS011;65834;52.364;9.754;2023-02-28T00:33:04;11.23;;;4.40;;
76863;SDS011;65834;52.364;9.754;2023-02-28T00:35:33;11.00;;;4.80;;
76863;SDS011;65834;52.364;9.754;2023-02-28T00:38:06;11.60;;;4.43;;
76863;SDS011;65834;52.364;9.754;2023-02-28T00:40:35;11.85;;;4.80;;
76863;SDS011;65834;52.364;9.754;2023-02-28T00:43:05;11.03;;;4.53;;
76863;SDS011;65834;52.364;9.754;2023-02-28T00:45:34;11.77;;;4.27;;
76863;SDS011;65834;52.364;9.754;2023-02-28T00:48:04;12.13;;;5.50;;
76863;SDS011;65834;52.364;9.754;2023-02-28T00:50:33;10.50;;;4.33;;
76863;SDS011;65834;52.364;9.754;2023-02-28T00:53:05;10.73;;;4.60;;
76863;SDS011;65834;52.364;9.754;2023-02-28T00:55:35;11.27;;;4.45;;
76863;SDS011;65834;52.364;9.754;2023-02-28T00:58:04;13.33;;;5.27;;
76863;SDS011;65834;52.364;9.754;2023-02-28T01:00:34;12.43;;;4.47;;
76863;SDS011;65834;52.364;9.754;2023-02-28T01:03:03;10.87;;;4.30;;
76863;SDS011;65834;52.364;9.754;2023-02-28T01:05:33;12.37;;;4.27;;
76863;SDS011;65834;52.364;9.754;2023-02-28T01:08:02;12.40;;;5.10;;
76863;SDS011;65834;52.364;9.754;2023-02-28T01:10:35;10.90;;;5.13;;
76863;SDS011;65834;52.364;9.754;2023-02-28T01:13:06;13.03;;;4.93;;
76863;SDS011;65834;52.364;9.754;2023-02-28T01:15:36;11.30;;;4.77;;
76863;SDS011;65834;52.364;9.754;2023-02-28T01:18:15;12.07;;;4.30;;
76863;SDS011;65834;52.364;9.754;2023-02-28T01:20:45;13.13;;;4.67;;
76863;SDS011;65834;52.364;9.754;2023-02-28T01:23:18;12.53;;;4.43;;
76863;SDS011;65834;52.364;9.754;2023-02-28T01:25:49;12.10;;;4.97;;
76863;SDS011;65834;52.364;9.754;2023-02-28T01:28:19;13.83;;;5.07;;
76863;SDS011;65834;52.364;9.754;2023-02-28T01:30:49;13.30;;;5.03;;
76863;SDS011;65834;52.364;9.754;2023-02-28T01:33:19;11.40;;;4.10;;
76863;SDS011;65834;52.364;9.754;2023-02-28T01:35:57;13.00;;;4.70;;
76863;SDS011;65834;52.364;9.754;2023-02-28T01:38:30;12.90;;;4.40;;
76863;SDS011;65834;52.364;9.754;2023-02-28T01:41:00;14.13;;;4.47;;
76863;SDS011;65834;52.364;9.754;2023-02-28T01:43:32;10.57;;;4.17;;
76863;SDS011;65834;52.364;9.754;2023-02-28T01:46:22;12.77;;;4.93;;
76863;SDS011;65834;52.364;9.754;2023-02-28T01:48:53;12.63;;;4.83;;
76863;SDS011;65834;52.364;9.754;2023-02-28T01:51:31;12.43;;;4.53;;
76863;SDS011;65834;52.364;9.754;2023-02-28T01:54:09;13.33;;;5.37;;
76863;SDS011;65834;52.364;9.754;2023-02-28T01:56:43;14.00;;;4.30;;
76863;SDS011;65834;52.364;9.754;2023-02-28T01:59:17;16.27;;;5.13;;
76863;SDS011;65834;52.364;9.754;2023-02-28T02:01:50;13.60;;;5.20;;
76863;SDS011;65834;52.364;9.754;2023-02-28T02:04:20;11.73;;;4.93;;
76863;SDS011;65834;52.364;9.754;2023-02-28T02:06:52;13.80;;;5.80;;
76863;SDS011;65834;52.364;9.754;2023-02-28T02:09:24;14.00;;;5.03;;
76863;SDS011;65834;52.364;9.754;2023-02-28T02:11:54;11.50;;;4.68;;
76863;SDS011;65834;52.364;9.754;2023-02-28T02:14:32;14.57;;;5.70;;
76863;SDS011;65834;52.364;9.754;2023-02-28T02:17:15;12.77;;;5.30;;
76863;SDS011;65834;52.364;9.754;2023-02-28T02:23:02;14.20;;;4.97;;
76863;SDS011;65834;52.364;9.754;2023-02-28T02:25:59;13.07;;;4.50;;
76863;SDS011;65834;52.364;9.754;2023-02-28T02:28:49;10.83;;;4.20;;
76863;SDS011;65834;52.364;9.754;2023-02-28T02:34:42;12.17;;;4.60;;
76863;SDS011;65834;52.364;9.754;2023-02-28T02:37:22;12.93;;;5.33;;
76863;SDS011;65834;52.364;9.754;2023-02-28T02:40:00;12.53;;;5.03;;
76863;SDS011;65834;52.364;9.754;2023-02-28T02:42:39;10.97;;;4.63;;
76863;SDS011;65834;52.364;9.754;2023-02-28T02:45:15;13.50;;;5.37;;
76863;SDS011;65834;52.364;9.754;2023-02-28T02:47:48;12.83;;;5.07;;
76863;SDS011;65834;52.364;9.754;2023-02-28T02:50:22;12.57;;;4.77;;
76863;SDS011;65834;52.364;9.754;2023-02-28T02:52:57;11.97;;;4.50;;
76863;SDS011;65834;52.364;9.754;2023-02-28T02:55:32;11.37;;;4.97;;
76863;SDS011;65834;52.364;9.754;2023-02-28T02:58:07;11.23;;;4.80;;
76863;SDS011;65834;52.364;9.754;2023-02-28T03:00:42;11.17;;;4.47;;
76863;SDS011;65834;52.364;9.754;2023-02-28T03:03:16;11.10;;;4.37;;
76863;SDS011;65834;52.364;9.754;2023-02-28T03:05:58;14.33;;;5.13;;
76863;SDS011;65834;52.364;9.754;2023-02-28T03:08:33;13.43;;;4.93;;
76863;SDS011;65834;52.364;9.754;2023-02-28T03:11:04;12.17;;;4.90;;
76863;SDS011;65834;52.364;9.754;2023-02-28T03:16:45;11.47;;;4.40;;
76863;SDS011;65834;52.364;9.754;2023-02-28T03:19:31;10.57;;;4.93;;
76863;SDS011;65834;52.364;9.754;2023-02-28T03:22:17;12.03;;;5.10;;
76863;SDS011;65834;52.364;9.754;2023-02-28T03:24:58;12.90;;;4.73;;
76863;SDS011;65834;52.364;9.754;2023-02-28T03:27:36;11.27;;;4.43;;
76863;SDS011;65834;52.364;9.754;2023-02-28T03:30:13;12.23;;;4.70;;
76863;SDS011;65834;52.364;9.754;2023-02-28T03:32:50;12.40;;;5.23;;
76863;SDS011;65834;52.364;9.754;2023-02-28T03:35:25;13.50;;;5.37;;
76863;SDS011;65834;52.364;9.754;2023-02-28T03:38:03;11.47;;;4.77;;
76863;SDS011;65834;52.364;9.754;2023-02-28T03:40:41;11.30;;;4.77;;
76863;SDS011;65834;52.364;9.754;2023-02-28T03:43:18;11.33;;;4.77;;
76863;SDS011;65834;52.364;9.754;2023-02-28T03:45:51;12.40;;;5.17;;
76863;SDS011;65834;52.364;9.754;2023-02-28T03:48:25;11.73;;;5.07;;
76863;SDS011;65834;52.364;9.754;2023-02-28T03:51:00;13.10;;;5.40;;
76863;SDS011;65834;52.364;9.754;2023-02-28T03:53:34;10.40;;;4.80;;
76863;SDS011;65834;52.364;9.754;2023-02-28T03:56:08;11.27;;;4.90;;
76863;SDS011;65834;52.364;9.754;2023-02-28T03:58:46;13.07;;;4.90;;
76863;SDS011;65834;52.364;9.754;2023-02-28T04:01:19;14.43;;;5.53;;
76863;SDS011;65834;52.364;9.754;2023-02-28T04:03:53;12.27;;;4.90;;
76863;SDS011;65834;52.364;9.754;2023-02-28T04:06:23;12.17;;;5.07;;
76863;SDS011;65834;52.364;9.754;2023-02-28T04:08:56;13.03;;;5.47;;
76863;SDS011;65834;52.364;9.754;2023-02-28T04:13:59;12.38;;;5.13;;
76863;SDS011;65834;52.364;9.754;2023-02-28T04:16:29;14.97;;;5.60;;
76863;SDS011;65834;52.364;9.754;2023-02-28T04:19:01;11.73;;;4.95;;
76863;SDS011;65834;52.364;9.754;2023-02-28T04:21:32;12.37;;;5.07;;
76863;SDS011;65834;52.364;9.754;2023-02-28T04:24:06;12.10;;;4.70;;
76863;SDS011;65834;52.364;9.754;2023-02-28T04:26:41;12.30;;;4.80;;
76863;SDS011;65834;52.364;9.754;2023-02-28T04:29:13;11.25;;;4.55;;
76863;SDS011;65834;52.364;9.754;2023-02-28T04:31:46;13.53;;;5.13;;
76863;SDS011;65834;52.364;9.754;2023-02-28T04:34:16;12.33;;;5.47;;
76863;SDS011;65834;52.364;9.754;2023-02-28T04:36:46;11.37;;;4.97;;
76863;SDS011;65834;52.364;9.754;2023-02-28T04:39:38;14.00;;;5.27;;
76863;SDS011;65834;52.364;9.754;2023-02-28T04:42:08;11.50;;;4.97;;
76863;SDS011;65834;52.364;9.754;2023-02-28T04:44:37;14.03;;;4.80;;
76863;SDS011;65834;52.364;9.754;2023-02-28T04:47:07;12.53;;;4.77;;
76863;SDS011;65834;52.364;9.754;2023-02-28T04:49:37;12.83;;;4.70;;
76863;SDS011;65834;52.364;9.754;2023-02-28T04:52:07;11.77;;;4.60;;
76863;SDS011;65834;52.364;9.754;2023-02-28T04:54:39;12.03;;;4.73;;
76863;SDS011;65834;52.364;9.754;2023-02-28T04:57:09;12.80;;;4.95;;
76863;SDS011;65834;52.364;9.754;2023-02-28T04:59:38;11.43;;;4.60;;
76863;SDS011;65834;52.364;9.754;2023-02-28T05:02:09;11.20;;;4.73;;
76863;SDS011;65834;52.364;9.754;2023-02-28T05:04:38;12.73;;;4.73;;
76863;SDS011;65834;52.364;9.754;2023-02-28T05:07:08;9.60;;;4.40;;
76863;SDS011;65834;52.364;9.754;2023-02-28T05:09:40;13.03;;;5.40;;
76863;SDS011;65834;52.364;9.754;2023-02-28T05:12:09;11.27;;;4.75;;
76863;SDS011;65834;52.364;9.754;2023-02-28T05:14:39;12.63;;;4.80;;
76863;SDS011;65834;52.364;9.754;2023-02-28T05:17:08;11.67;;;4.50;;
76863;SDS011;65834;52.364;9.754;2023-02-28T05:19:38;11.67;;;4.80;;
76863;SDS011;65834;52.364;9.754;2023-02-28T05:22:11;10.27;;;4.07;;
76863;SDS011;65834;52.364;9.754;2023-02-28T05:24:45;11.80;;;4.70;;
76863;SDS011;65834;52.364;9.754;2023-02-28T05:27:15;13.75;;;4.80;;
76863;SDS011;65834;52.364;9.754;2023-02-28T05:29:44;11.87;;;4.50;;
76863;SDS011;65834;52.364;9.754;2023-02-28T05:32:14;11.70;;;4.53;;
76863;SDS011;65834;52.364;9.754;2023-02-28T05:34:43;11.70;;;4.63;;
76863;SDS011;65834;52.364;9.754;2023-02-28T05:37:13;11.33;;;4.73;;
76863;SDS011;65834;52.364;9.754;2023-02-28T05:39:46;11.27;;;4.57;;
76863;SDS011;65834;52.364;9.754;2023-02-28T05:42:15;13.15;;;5.35;;
76863;SDS011;65834;52.364;9.754;2023-02-28T05:44:45;14.00;;;5.00;;
76863;SDS011;65834;52.364;9.754;2023-02-28T05:47:14;14.13;;;5.83;;
76863;SDS011;65834;52.364;9.754;2023-02-28T05:49:44;13.63;;;5.30;;
76863;SDS011;65834;52.364;9.754;2023-02-28T05:52:14;11.70;;;5.50;;
76863;SDS011;65834;52.364;9.754;2023-02-28T05:54:46;14.00;;;5.63;;
76863;SDS011;65834;52.364;9.754;2023-02-28T05:57:16;13.07;;;5.10;;
76863;SDS011;65834;52.364;9.754;2023-02-28T05:59:50;13.17;;;5.20;;
76863;SDS011;65834;52.364;9.754;2023-02-28T06:02:19;12.03;;;4.60;;
76863;SDS011;65834;52.364;9.754;2023-02-28T06:04:49;10.87;;;4.87;;
76863;SDS011;65834;52.364;9.754;2023-02-28T06:07:18;12.67;;;5.13;;
76863;SDS011;65834;52.364;9.754;2023-02-28T06:09:51;13.60;;;5.20;;
76863;SDS011;65834;52.364;9.754;2023-02-28T06:12:20;13.70;;;5.53;;
76863;SDS011;65834;52.364;9.754;2023-02-28T06:14:50;13.77;;;5.00;;
76863;SDS011;65834;52.364;9.754;2023-02-28T06:17:19;12.80;;;4.77;;
76863;SDS011;65834;52.364;9.754;2023-02-28T06:19:49;10.97;;;4.63;;
76863;SDS011;65834;52.364;9.754;2023-02-28T06:22:18;14.57;;;5.60;;
76863;SDS011;65834;52.364;9.754;2023-02-28T06:24:48;12.93;;;5.57;;
76863;SDS011;65834;52.364;9.754;2023-02-28T06:27:21;13.97;;;5.33;;
76863;SDS011;65834;52.364;9.754;2023-02-28T06:29:53;13.33;;;5.30;;
76863;SDS011;65834;52.364;9.754;2023-02-28T06:32:23;11.33;;;4.90;;
76863;SDS011;65834;52.364;9.754;2023-02-28T06:35:52;15.07;;;5.57;;
76863;SDS011;65834;52.364;9.754;2023-02-28T06:39:21;12.33;;;4.90;;
76863;SDS011;65834;52.364;9.754;2023-02-28T06:42:51;14.80;;;5.93;;
76863;SDS011;65834;52.364;9.754;2023-02-28T06:46:20;12.77;;;5.77;;
76863;SDS011;65834;52.364;9.754;2023-02-28T06:49:48;13.13;;;5.53;;
76863;SDS011;65834;52.364;9.754;2023-02-28T06:53:16;14.13;;;5.93;;
76863;SDS011;65834;52.364;9.754;2023-02-28T06:56:46;11.93;;;5.73;;
76863;SDS011;65834;52.364;9.754;2023-02-28T07:00:17;14.43;;;5.80;;
76863;SDS011;65834;52.364;9.754;2023-02-28T07:03:45;12.73;;;6.27;;
76863;SDS011;65834;52.364;9.754;2023-02-28T07:07:14;12.57;;;5.53;;
76863;SDS011;65834;52.364;9.754;2023-02-28T07:10:43;13.40;;;5.37;;
76863;SDS011;65834;52.364;9.754;2023-02-28T07:14:13;12.60;;;5.63;;
76863;SDS011;65834;52.364;9.754;2023-02-28T07:17:41;12.47;;;5.63;;
76863;SDS011;65834;52.364;9.754;2023-02-28T07:21:10;15.27;;;6.00;;
76863;SDS011;65834;52.364;9.754;2023-02-28T07:24:41;15.53;;;7.00;;
76863;SDS011;65834;52.364;9.754;2023-02-28T07:27:10;16.10;;;6.00;;
76863;SDS011;65834;52.364;9.754;2023-02-28T07:29:54;14.17;;;5.80;;
76863;SDS011;65834;52.364;9.754;2023-02-28T07:32:23;14.93;;;6.25;;
76863;SDS011;65834;52.364;9.754;2023-02-28T07:34:53;14.37;;;5.90;;
76863;SDS011;65834;52.364;9.754;2023-02-28T07:37:22;12.77;;;5.93;;
76863;SDS011;65834;52.364;9.754;2023-02-28T07:39:52;13.90;;;5.87;;
76863;SDS011;65834;52.364;9.754;2023-02-28T07:42:21;15.43;;;5.57;;
76863;SDS011;65834;52.364;9.754;2023-02-28T07:44:50;13.57;;;5.60;;
76863;SDS011;65834;52.364;9.754;2023-02-28T07:47:22;12.38;;;5.32;;
76863;SDS011;65834;52.364;9.754;2023-02-28T07:49:52;14.90;;;5.53;;
76863;SDS011;65834;52.364;9.754;2023-02-28T07:52:21;14.00;;;5.37;;
76863;SDS011;65834;52.364;9.754;2023-02-28T07:54:52;12.73;;;5.07;;
76863;SDS011;65834;52.364;9.754;2023-02-28T07:57:23;14.30;;;5.27;;
76863;SDS011;65834;52.364;9.754;2023-02-28T07:59:55;12.83;;;5.70;;
76863;SDS011;65834;52.364;9.754;2023-02-28T08:02:25;12.30;;;5.68;;
76863;SDS011;65834;52.364;9.754;2023-02-28T08:04:54;14.27;;;5.93;;
76863;SDS011;65834;52.364;9.754;2023-02-28T08:07:24;14.67;;;5.73;;
76863;SDS011;65834;52.364;9.754;2023-02-28T08:09:53;13.17;;;5.50;;
76863;SDS011;65834;52.364;9.754;2023-02-28T08:12:23;12.63;;;4.83;;
76863;SDS011;65834;52.364;9.754;2023-02-28T08:14:55;11.63;;;4.70;;
76863;SDS011;65834;52.364;9.754;2023-02-28T08:17:24;12.07;;;4.65;;
76863;SDS011;65834;52.364;9.754;2023-02-28T08:19:53;15.17;;;4.73;;
76863;SDS011;65834;52.364;9.754;2023-02-28T08:22:23;10.43;;;4.13;;
76863;SDS011;65834;52.364;9.754;2023-02-28T08:24:53;12.07;;;4.50;;
76863;SDS011;65834;52.364;9.754;2023-02-28T08:27:25;12.00;;;4.77;;
76863;SDS011;65834;52.364;9.754;2023-02-28T08:29:57;11.45;;;3.90;;
76863;SDS011;65834;52.364;9.754;2023-02-28T08:32:27;12.88;;;4.57;;
76863;SDS011;65834;52.364;9.754;2023-02-28T08:34:56;11.40;;;4.50;;
76863;SDS011;65834;52.364;9.754;2023-02-28T08:37:26;11.57;;;3.73;;
76863;SDS011;65834;52.364;9.754;2023-02-28T08:39:57;11.70;;;4.43;;
76863;SDS011;65834;52.364;9.754;2023-02-28T08:42:26;10.80;;;4.23;;
76863;SDS011;65834;52.364;9.754;2023-02-28T08:45:01;10.32;;;4.20;;
76863;SDS011;65834;52.364;9.754;2023-02-28T08:47:31;10.77;;;3.90;;
76863;SDS011;65834;52.364;9.754;2023-02-28T08:50:01;13.23;;;4.20;;
76863;SDS011;65834;52.364;9.754;2023-02-28T08:52:30;10.67;;;3.60;;
76863;SDS011;65834;52.364;9.754;2023-02-28T08:55:00;10.77;;;3.50;;
76863;SDS011;65834;52.364;9.754;2023-02-28T08:57:29;10.83;;;3.23;;
76863;SDS011;65834;52.364;9.754;2023-02-28T09:00:02;13.00;;;3.53;;
76863;SDS011;65834;52.364;9.754;2023-02-28T09:02:31;10.55;;;3.67;;
76863;SDS011;65834;52.364;9.754;2023-02-28T09:05:01;8.57;;;3.57;;
76863;SDS011;65834;52.364;9.754;2023-02-28T09:07:30;8.03;;;3.10;;
76863;SDS011;65834;52.364;9.754;2023-02-28T09:10:00;10.63;;;3.37;;
76863;SDS011;65834;52.364;9.754;2023-02-28T09:12:31;9.40;;;3.00;;
76863;SDS011;65834;52.364;9.754;2023-02-28T09:15:07;9.23;;;3.27;;
76863;SDS011;65834;52.364;9.754;2023-02-28T09:17:37;6.90;;;2.60;;
76863;SDS011;65834;52.364;9.754;2023-02-28T09:20:08;8.27;;;2.73;;
76863;SDS011;65834;52.364;9.754;2023-02-28T09:22:39;5.20;;;2.50;;
76863;SDS011;65834;52.364;9.754;2023-02-28T09:25:08;8.27;;;3.37;;
76863;SDS011;65834;52.364;9.754;2023-02-28T09:27:37;9.20;;;2.90;;
76863;SDS011;65834;52.364;9.754;2023-02-28T09:30:11;8.80;;;3.03;;
76863;SDS011;65834;52.364;9.754;2023-02-28T09:32:42;8.17;;;2.77;;
76863;SDS011;65834;52.364;9.754;2023-02-28T09:35:18;6.03;;;2.40;;
76863;SDS011;65834;52.364;9.754;2023-02-28T09:40:22;8.80;;;2.87;;
76863;SDS011;65834;52.364;9.754;2023-02-28T09:45:29;5.60;;;2.13;;
76863;SDS011;65834;52.364;9.754;2023-02-28T09:48:02;7.53;;;2.30;;
76863;SDS011;65834;52.364;9.754;2023-02-28T09:50:37;6.37;;;2.23;;
76863;SDS011;65834;52.364;9.754;2023-02-28T09:53:13;7.90;;;2.50;;
76863;SDS011;65834;52.364;9.754;2023-02-28T09:55:50;7.33;;;2.30;;
76863;SDS011;65834;52.364;9.754;2023-02-28T09:58:26;8.23;;;2.17;;
76863;SDS011;65834;52.364;9.754;2023-02-28T10:01:06;7.10;;;2.30;;
76863;SDS011;65834;52.364;9.754;2023-02-28T10:03:39;6.07;;;1.90;;
76863;SDS011;65834;52.364;9.754;2023-02-28T10:06:13;6.32;;;1.80;;
76863;SDS011;65834;52.364;9.754;2023-02-28T10:08:48;6.33;;;1.90;;
76863;SDS011;65834;52.364;9.754;2023-02-28T10:11:21;5.17;;;1.70;;
76863;SDS011;65834;52.364;9.754;2023-02-28T10:13:53;6.32;;;2.03;;
76863;SDS011;65834;52.364;9.754;2023-02-28T10:16:32;9.43;;;2.60;;
76863;SDS011;65834;52.364;9.754;2023-02-28T10:19:09;7.07;;;2.07;;
76863;SDS011;65834;52.364;9.754;2023-02-28T10:21:44;6.23;;;2.20;;
76863;SDS011;65834;52.364;9.754;2023-02-28T10:24:20;8.77;;;2.20;;
76863;SDS011;65834;52.364;9.754;2023-02-28T10:26:59;6.80;;;2.33;;
76863;SDS011;65834;52.364;9.754;2023-02-28T10:29:33;5.00;;;1.93;;
76863;SDS011;65834;52.364;9.754;2023-02-28T10:32:05;5.97;;;1.93;;
76863;SDS011;65834;52.364;9.754;2023-02-28T10:34:35;4.25;;;1.60;;
76863;SDS011;65834;52.364;9.754;2023-02-28T10:37:04;4.60;;;1.60;;
76863;SDS011;65834;52.364;9.754;2023-02-28T10:39:37;4.88;;;1.80;;
76863;SDS011;65834;52.364;9.754;2023-02-28T10:42:22;5.28;;;1.85;;
76863;SDS011;65834;52.364;9.754;2023-02-28T10:45:06;7.37;;;1.87;;
76863;SDS011;65834;52.364;9.754;2023-02-28T10:47:48;5.43;;;1.77;;
76863;SDS011;65834;52.364;9.754;2023-02-28T10:50:29;4.53;;;1.60;;
76863;SDS011;65834;52.364;9.754;2023-02-28T10:53:06;5.43;;;1.65;;
76863;SDS011;65834;52.364;9.754;2023-02-28T10:55:43;3.67;;;1.60;;
76863;SDS011;65834;52.364;9.754;2023-02-28T10:58:20;6.70;;;1.70;;
76863;SDS011;65834;52.364;9.754;2023-02-28T11:00:50;4.47;;;1.50;;
76863;SDS011;65834;52.364;9.754;2023-02-28T11:03:28;4.27;;;1.70;;
76863;SDS011;65834;52.364;9.754;2023-02-28T11:06:04;7.13;;;1.70;;
76863;SDS011;65834;52.364;9.754;2023-02-28T11:08:42;3.50;;;1.20;;
76863;SDS011;65834;52.364;9.754;2023-02-28T11:11:14;5.23;;;1.50;;
76863;SDS011;65834;52.364;9.754;2023-02-28T11:13:47;3.53;;;1.10;;
76863;SDS011;65834;52.364;9.754;2023-02-28T11:16:19;2.58;;;0.93;;
76863;SDS011;65834;52.364;9.754;2023-02-28T11:18:53;4.83;;;1.30;;
76863;SDS011;65834;52.364;9.754;2023-02-28T11:21:24;1.80;;;0.90;;
76863;SDS011;65834;52.364;9.754;2023-02-28T11:24:00;5.50;;;1.27;;
76863;SDS011;65834;52.364;9.754;2023-02-28T11:26:39;2.00;;;1.27;;
76863;SDS011;65834;52.364;9.754;2023-02-28T11:29:12;1.83;;;1.00;;
76863;SDS011;65834;52.364;9.754;2023-02-28T11:32:00;3.23;;;1.03;;
76863;SDS011;65834;52.364;9.754;2023-02-28T11:34:42;4.53;;;1.33;;
76863;SDS011;65834;52.364;9.754;2023-02-28T11:37:13;2.80;;;1.20;;
76863;SDS011;65834;52.364;9.754;2023-02-28T11:39:45;2.90;;;1.40;;
76863;SDS011;65834;52.364;9.754;2023-02-28T11:42:22;7.37;;;2.17;;
76863;SDS011;65834;52.364;9.754;2023-02-28T11:45:08;5.80;;;1.57;;
76863;SDS011;65834;52.364;9.754;2023-02-28T11:47:47;4.13;;;1.60;;
76863;SDS011;65834;52.364;9.754;2023-02-28T11:50:26;5.20;;;1.73;;
76863;SDS011;65834;52.364;9.754;2023-02-28T11:53:11;3.63;;;1.83;;
76863;SDS011;65834;52.364;9.754;2023-02-28T11:55:54;5.73;;;1.60;;
76863;SDS011;65834;52.364;9.754;2023-02-28T11:58:37;7.90;;;2.53;;
76863;SDS011;65834;52.364;9.754;2023-02-28T12:01:19;4.97;;;1.90;;
76863;SDS011;65834;52.364;9.754;2023-02-28T12:04:08;6.13;;;2.00;;
76863;SDS011;65834;52.364;9.754;2023-02-28T12:06:50;4.80;;;1.93;;
76863;SDS011;65834;52.364;9.754;2023-02-28T12:09:30;5.30;;;1.83;;
76863;SDS011;65834;52.364;9.754;2023-02-28T12:12:11;6.67;;;2.37;;
76863;SDS011;65834;52.364;9.754;2023-02-28T12:14:50;6.33;;;1.87;;
76863;SDS011;65834;52.364;9.754;2023-02-28T12:17:34;4.50;;;2.10;;
76863;SDS011;65834;52.364;9.754;2023-02-28T12:20:17;6.43;;;1.83;;
76863;SDS011;65834;52.364;9.754;2023-02-28T12:22:59;5.07;;;1.83;;
76863;SDS011;65834;52.364;9.754;2023-02-28T12:25:48;5.63;;;1.67;;
76863;SDS011;65834;52.364;9.754;2023-02-28T12:28:28;5.63;;;1.90;;
76863;SDS011;65834;52.364;9.754;2023-02-28T12:31:03;5.33;;;2.20;;
76863;SDS011;65834;52.364;9.754;2023-02-28T12:33:36;5.83;;;2.00;;
76863;SDS011;65834;52.364;9.754;2023-02-28T12:36:11;4.93;;;1.80;;
76863;SDS011;65834;52.364;9.754;2023-02-28T12:38:50;5.47;;;2.00;;
76863;SDS011;65834;52.364;9.754;2023-02-28T12:41:26;6.87;;;2.00;;
76863;SDS011;65834;52.364;9.754;2023-02-28T12:44:03;6.07;;;2.37;;
76863;SDS011;65834;52.364;9.754;2023-02-28T12:46:38;7.80;;;2.60;;
76863;SDS011;65834;52.364;9.754;2023-02-28T12:49:13;8.90;;;2.60;;
76863;SDS011;65834;52.364;9.754;2023-02-28T12:51:46;7.73;;;2.33;;
76863;SDS011;65834;52.364;9.754;2023-02-28T12:54:22;8.17;;;2.80;;
76863;SDS011;65834;52.364;9.754;2023-02-28T12:57:00;6.80;;;2.40;;
76863;SDS011;65834;52.364;9.754;2023-02-28T12:59:36;7.60;;;2.70;;
76863;SDS011;65834;52.364;9.754;2023-02-28T13:02:17;6.87;;;2.80;;
76863;SDS011;65834;52.364;9.754;2023-02-28T13:05:10;6.67;;;2.40;;
76863;SDS011;65834;52.364;9.754;2023-02-28T13:08:04;8.77;;;2.63;;
76863;SDS011;65834;52.364;9.754;2023-02-28T13:10:47;6.70;;;2.50;;
76863;SDS011;65834;52.364;9.754;2023-02-28T13:13:21;7.93;;;2.72;;
76863;SDS011;65834;52.364;9.754;2023-02-28T13:16:02;6.45;;;2.75;;
76863;SDS011;65834;52.364;9.754;2023-02-28T13:18:35;10.13;;;3.20;;
76863;SDS011;65834;52.364;9.754;2023-02-28T13:21:06;6.93;;;2.70;;
76863;SDS011;65834;52.364;9.754;2023-02-28T13:23:40;10.02;;;3.08;;
76863;SDS011;65834;52.364;9.754;2023-02-28T13:29:31;7.40;;;2.83;;
76863;SDS011;65834;52.364;9.754;2023-02-28T13:35:13;7.38;;;2.53;;
76863;SDS011;65834;52.364;9.754;2023-02-28T13:38:21;7.95;;;2.90;;
76863;SDS011;65834;52.364;9.754;2023-02-28T13:40:53;7.65;;;2.58;;
76863;SDS011;65834;52.364;9.754;2023-02-28T13:43:24;7.80;;;2.60;;
76863;SDS011;65834;52.364;9.754;2023-02-28T13:46:32;5.97;;;2.45;;
76863;SDS011;65834;52.364;9.754;2023-02-28T13:52:02;7.75;;;2.50;;
76863;SDS011;65834;52.364;9.754;2023-02-28T13:54:45;7.38;;;2.70;;
76863;SDS011;65834;52.364;9.754;2023-02-28T13:57:30;7.40;;;2.78;;
76863;SDS011;65834;52.364;9.754;2023-02-28T14:00:17;10.30;;;2.92;;
76863;SDS011;65834;52.364;9.754;2023-02-28T14:03:04;8.05;;;3.00;;
76863;SDS011;65834;52.364;9.754;2023-02-28T14:05:43;8.55;;;3.10;;
76863;SDS011;65834;52.364;9.754;2023-02-28T14:08:14;9.02;;;3.17;;
76863;SDS011;65834;52.364;9.754;2023-02-28T14:10:47;6.13;;;2.80;;
76863;SDS011;65834;52.364;9.754;2023-02-28T14:13:38;6.13;;;2.70;;
76863;SDS011;65834;52.364;9.754;2023-02-28T14:16:13;7.33;;;2.70;;
76863;SDS011;65834;52.364;9.754;2023-02-28T14:18:50;10.17;;;3.10;;
76863;SDS011;65834;52.364;9.754;2023-02-28T14:21:26;8.10;;;2.73;;
76863;SDS011;65834;52.364;9.754;2023-02-28T14:24:22;7.20;;;2.70;;
76863;SDS011;65834;52.364;9.754;2023-02-28T14:30:00;6.90;;;2.33;;
76863;SDS011;65834;52.364;9.754;2023-02-28T14:32:41;9.80;;;3.03;;
76863;SDS011;65834;52.364;9.754;2023-02-28T14:35:26;8.10;;;2.70;;
76863;SDS011;65834;52.364;9.754;2023-02-28T14:38:14;7.70;;;2.43;;
76863;SDS011;65834;52.364;9.754;2023-02-28T14:40:48;7.67;;;2.47;;
76863;SDS011;65834;52.364;9.754;2023-02-28T14:43:21;9.70;;;2.40;;
76863;SDS011;65834;52.364;9.754;2023-02-28T14:45:53;9.20;;;2.40;;
76863;SDS011;65834;52.364;9.754;2023-02-28T14:48:24;5.43;;;2.17;;
76863;SDS011;65834;52.364;9.754;2023-02-28T14:50:58;7.87;;;2.60;;
76863;SDS011;65834;52.364;9.754;2023-02-28T14:53:30;9.17;;;3.07;;
76863;SDS011;65834;52.364;9.754;2023-02-28T14:56:05;6.53;;;2.63;;
76863;SDS011;65834;52.364;9.754;2023-02-28T14:58:50;7.47;;;2.30;;
76863;SDS011;65834;52.364;9.754;2023-02-28T15:01:22;7.87;;;2.30;;
76863;SDS011;65834;52.364;9.754;2023-02-28T15:04:02;5.70;;;2.20;;
76863;SDS011;65834;52.364;9.754;2023-02-28T15:06:35;5.50;;;2.30;;
76863;SDS011;65834;52.364;9.754;2023-02-28T15:09:14;6.72;;;2.20;;
76863;SDS011;65834;52.364;9.754;2023-02-28T15:11:46;6.90;;;2.60;;
76863;SDS011;65834;52.364;9.754;2023-02-28T15:14:18;4.50;;;2.10;;
76863;SDS011;65834;52.364;9.754;2023-02-28T15:16:51;6.10;;;2.20;;
76863;SDS011;65834;52.364;9.754;2023-02-28T15:19:26;7.80;;;2.60;;
76863;SDS011;65834;52.364;9.754;2023-02-28T15:22:02;10.03;;;3.13;;
76863;SDS011;65834;52.364;9.754;2023-02-28T15:24:36;6.60;;;2.53;;
76863;SDS011;65834;52.364;9.754;2023-02-28T15:27:13;6.77;;;2.40;;
76863;SDS011;65834;52.364;9.754;2023-02-28T15:29:51;6.17;;;2.63;;
76863;SDS011;65834;52.364;9.754;2023-02-28T15:32:26;7.20;;;2.43;;
76863;SDS011;65834;52.364;9.754;2023-02-28T15:40:15;6.63;;;2.47;;
76863;SDS011;65834;52.364;9.754;2023-02-28T15:45:33;6.53;;;2.50;;
76863;SDS011;65834;52.364;9.754;2023-02-28T15:48:13;6.00;;;2.47;;
76863;SDS011;65834;52.364;9.754;2023-02-28T15:50:47;6.80;;;2.40;;
76863;SDS011;65834;52.364;9.754;2023-02-28T15:53:22;8.60;;;3.00;;
76863;SDS011;65834;52.364;9.754;2023-02-28T15:55:57;7.33;;;2.50;;
76863;SDS011;65834;52.364;9.754;2023-02-28T15:58:30;7.67;;;2.53;;
76863;SDS011;65834;52.364;9.754;2023-02-28T16:01:00;6.93;;;2.60;;
76863;SDS011;65834;52.364;9.754;2023-02-28T16:03:40;7.17;;;2.70;;
76863;SDS011;65834;52.364;9.754;2023-02-28T16:06:21;8.80;;;2.80;;
76863;SDS011;65834;52.364;9.754;2023-02-28T16:08:58;7.75;;;2.50;;
76863;SDS011;65834;52.364;9.754;2023-02-28T16:11:27;6.82;;;2.78;;
76863;SDS011;65834;52.364;9.754;2023-02-28T16:13:58;7.43;;;2.70;;